sensor_id;sensor_type;location;lat;lon;timestamp;P1;durP1;ratioP1;P2;durP2;ratioP2
15425;SDS011;7812;50.072;7.036;2022-08-04T00:00:43;1.50;;;1.27;;
15425;SDS011;7812;50.072;7.036;2022-08-04T00:03:25;1.47;;;1.37;;
15425;SDS011;7812;50.072;7.036;2022-08-04T00:05:59;1.33;;;1.23;;
15425;SDS011;7812;50.072;7.036;2022-08-04T00:10:55;3.20;;;1.43;;
15425;SDS011;7812;50.072;7.036;2022-08-04T00:13:24;1.63;;;1.53;;
15425;SDS011;7812;50.072;7.036;2022-08-04T00:15:52;1.80;;;1.40;;
15425;SDS011;7812;50.072;7.036;2022-08-04T00:18:40;2.23;;;1.40;;
15425;SDS011;7812;50.072;7.036;2022-08-04T00:21:15;1.40;;;1.30;;
15425;SDS011;7812;50.072;7.036;2022-08-04T00:23:44;1.67;;;1.40;;
15425;SDS011;7812;50.072;7.036;2022-08-04T00:26:11;1.40;;;1.30;;
15425;SDS011;7812;50.072;7.036;2022-08-04T00:28:41;1.90;;;1.30;;
15425;SDS011;7812;50.072;7.036;2022-08-04T00:31:08;3.63;;;1.50;;
15425;SDS011;7812;50.072;7.036;2022-08-04T00:33:36;1.40;;;1.30;;
15425;SDS011;7812;50.072;7.036;2022-08-04T00:36:02;2.10;;;1.87;;
15425;SDS011;7812;50.072;7.036;2022-08-04T00:38:28;2.97;;;1.60;;
15425;SDS011;7812;50.072;7.036;2022-08-04T00:43:30;1.20;;;1.10;;
15425;SDS011;7812;50.072;7.036;2022-08-04T00:48:55;1.40;;;1.30;;
15425;SDS011;7812;50.072;7.036;2022-08-04T00:51:36;2.23;;;1.50;;
15425;SDS011;7812;50.072;7.036;2022-08-04T01:02:00;2.60;;;1.40;;
15425;SDS011;7812;50.072;7.036;2022-08-04T01:16:10;1.40;;;1.30;;
15425;SDS011;7812;50.072;7.036;2022-08-04T01:21:35;2.13;;;1.40;;
15425;SDS011;7812;50.072;7.036;2022-08-04T01:24:23;1.60;;;1.50;;
15425;SDS011;7812;50.072;7.036;2022-08-04T01:29:48;2.57;;;1.60;;
15425;SDS011;7812;50.072;7.036;2022-08-04T01:34:41;1.90;;;1.50;;
15425;SDS011;7812;50.072;7.036;2022-08-04T01:40:18;1.70;;;1.60;;
15425;SDS011;7812;50.072;7.036;2022-08-04T01:42:46;3.50;;;1.80;;
15425;SDS011;7812;50.072;7.036;2022-08-04T01:45:16;2.30;;;1.50;;
15425;SDS011;7812;50.072;7.036;2022-08-04T01:47:47;1.57;;;1.47;;
15425;SDS011;7812;50.072;7.036;2022-08-04T01:50:15;1.90;;;1.70;;
15425;SDS011;7812;50.072;7.036;2022-08-04T01:52:42;3.07;;;1.63;;
15425;SDS011;7812;50.072;7.036;2022-08-04T01:55:10;2.33;;;1.70;;
15425;SDS011;7812;50.072;7.036;2022-08-04T01:57:44;3.33;;;1.83;;
15425;SDS011;7812;50.072;7.036;2022-08-04T02:00:13;2.63;;;1.63;;
15425;SDS011;7812;50.072;7.036;2022-08-04T02:02:41;1.53;;;1.43;;
15425;SDS011;7812;50.072;7.036;2022-08-04T02:05:10;1.60;;;1.50;;
15425;SDS011;7812;50.072;7.036;2022-08-04T02:18:05;2.20;;;1.50;;
15425;SDS011;7812;50.072;7.036;2022-08-04T02:20:48;1.80;;;1.70;;
15425;SDS011;7812;50.072;7.036;2022-08-04T02:23:23;2.03;;;1.70;;
15425;SDS011;7812;50.072;7.036;2022-08-04T02:25:55;2.07;;;1.90;;
15425;SDS011;7812;50.072;7.036;2022-08-04T02:31:42;1.70;;;1.60;;
15425;SDS011;7812;50.072;7.036;2022-08-04T02:34:24;2.00;;;1.80;;
15425;SDS011;7812;50.072;7.036;2022-08-04T02:36:54;2.30;;;1.83;;
15425;SDS011;7812;50.072;7.036;2022-08-04T02:39:21;1.80;;;1.63;;
15425;SDS011;7812;50.072;7.036;2022-08-04T02:41:48;2.00;;;1.80;;
15425;SDS011;7812;50.072;7.036;2022-08-04T02:44:19;1.90;;;1.63;;
15425;SDS011;7812;50.072;7.036;2022-08-04T02:46:52;1.80;;;1.70;;
15425;SDS011;7812;50.072;7.036;2022-08-04T02:49:20;1.70;;;1.60;;
15425;SDS011;7812;50.072;7.036;2022-08-04T02:51:49;2.33;;;1.70;;
15425;SDS011;7812;50.072;7.036;2022-08-04T02:54:16;2.17;;;1.47;;
15425;SDS011;7812;50.072;7.036;2022-08-04T02:56:47;2.07;;;1.87;;
15425;SDS011;7812;50.072;7.036;2022-08-04T02:59:15;1.70;;;1.60;;
15425;SDS011;7812;50.072;7.036;2022-08-04T03:01:42;1.87;;;1.67;;
15425;SDS011;7812;50.072;7.036;2022-08-04T03:07:08;2.27;;;1.77;;
15425;SDS011;7812;50.072;7.036;2022-08-04T03:23:01;2.53;;;2.10;;
15425;SDS011;7812;50.072;7.036;2022-08-04T03:31:16;2.40;;;1.70;;
15425;SDS011;7812;50.072;7.036;2022-08-04T03:56:03;2.03;;;1.90;;
15425;SDS011;7812;50.072;7.036;2022-08-04T04:09:48;2.37;;;2.10;;
15425;SDS011;7812;50.072;7.036;2022-08-04T04:13:01;4.60;;;2.17;;
15425;SDS011;7812;50.072;7.036;2022-08-04T04:30:11;2.43;;;2.20;;
15425;SDS011;7812;50.072;7.036;2022-08-04T04:35:12;2.13;;;1.93;;
15425;SDS011;7812;50.072;7.036;2022-08-04T04:51:49;2.10;;;1.90;;
15425;SDS011;7812;50.072;7.036;2022-08-04T04:54:24;2.33;;;1.93;;
15425;SDS011;7812;50.072;7.036;2022-08-04T05:00:09;2.50;;;2.30;;
15425;SDS011;7812;50.072;7.036;2022-08-04T05:16:18;3.17;;;2.07;;
15425;SDS011;7812;50.072;7.036;2022-08-04T05:18:59;2.50;;;2.20;;
15425;SDS011;7812;50.072;7.036;2022-08-04T05:22:02;2.43;;;2.23;;
15425;SDS011;7812;50.072;7.036;2022-08-04T05:24:44;2.43;;;2.23;;
15425;SDS011;7812;50.072;7.036;2022-08-04T05:27:15;2.40;;;2.20;;
15425;SDS011;7812;50.072;7.036;2022-08-04T05:29:49;4.13;;;2.60;;
15425;SDS011;7812;50.072;7.036;2022-08-04T05:32:25;3.17;;;2.27;;
15425;SDS011;7812;50.072;7.036;2022-08-04T05:34:56;2.53;;;2.23;;
15425;SDS011;7812;50.072;7.036;2022-08-04T05:37:27;2.97;;;2.60;;
15425;SDS011;7812;50.072;7.036;2022-08-04T05:39:58;2.10;;;1.90;;
15425;SDS011;7812;50.072;7.036;2022-08-04T05:42:28;3.50;;;2.43;;
15425;SDS011;7812;50.072;7.036;2022-08-04T05:44:58;2.80;;;1.97;;
15425;SDS011;7812;50.072;7.036;2022-08-04T05:47:24;3.63;;;1.80;;
15425;SDS011;7812;50.072;7.036;2022-08-04T05:49:52;3.27;;;2.00;;
15425;SDS011;7812;50.072;7.036;2022-08-04T05:52:19;2.90;;;2.40;;
15425;SDS011;7812;50.072;7.036;2022-08-04T05:54:46;3.90;;;2.40;;
15425;SDS011;7812;50.072;7.036;2022-08-04T05:57:14;6.20;;;2.43;;
15425;SDS011;7812;50.072;7.036;2022-08-04T05:59:41;2.93;;;2.07;;
15425;SDS011;7812;50.072;7.036;2022-08-04T06:02:10;2.47;;;2.20;;
15425;SDS011;7812;50.072;7.036;2022-08-04T06:04:40;2.67;;;2.10;;
15425;SDS011;7812;50.072;7.036;2022-08-04T06:07:07;2.50;;;2.00;;
15425;SDS011;7812;50.072;7.036;2022-08-04T06:09:35;3.97;;;2.00;;
15425;SDS011;7812;50.072;7.036;2022-08-04T06:12:03;2.23;;;2.00;;
15425;SDS011;7812;50.072;7.036;2022-08-04T06:14:37;3.20;;;2.13;;
15425;SDS011;7812;50.072;7.036;2022-08-04T06:17:06;2.47;;;2.10;;
15425;SDS011;7812;50.072;7.036;2022-08-04T06:19:34;2.13;;;1.80;;
15425;SDS011;7812;50.072;7.036;2022-08-04T06:22:02;2.37;;;2.10;;
15425;SDS011;7812;50.072;7.036;2022-08-04T06:24:29;3.03;;;1.83;;
15425;SDS011;7812;50.072;7.036;2022-08-04T06:26:56;2.87;;;2.10;;
15425;SDS011;7812;50.072;7.036;2022-08-04T06:29:23;2.83;;;2.27;;
15425;SDS011;7812;50.072;7.036;2022-08-04T06:32:04;2.73;;;2.10;;
15425;SDS011;7812;50.072;7.036;2022-08-04T06:34:53;2.00;;;1.83;;
15425;SDS011;7812;50.072;7.036;2022-08-04T06:37:23;3.73;;;2.00;;
15425;SDS011;7812;50.072;7.036;2022-08-04T06:39:50;2.60;;;1.83;;
15425;SDS011;7812;50.072;7.036;2022-08-04T06:42:17;2.00;;;1.90;;
15425;SDS011;7812;50.072;7.036;2022-08-04T06:44:51;2.17;;;1.97;;
15425;SDS011;7812;50.072;7.036;2022-08-04T06:47:23;2.13;;;1.97;;
15425;SDS011;7812;50.072;7.036;2022-08-04T06:49:50;2.30;;;2.03;;
15425;SDS011;7812;50.072;7.036;2022-08-04T06:52:19;2.47;;;2.00;;
15425;SDS011;7812;50.072;7.036;2022-08-04T06:54:46;1.80;;;1.70;;
15425;SDS011;7812;50.072;7.036;2022-08-04T06:57:13;1.93;;;1.83;;
15425;SDS011;7812;50.072;7.036;2022-08-04T06:59:43;2.33;;;2.10;;
15425;SDS011;7812;50.072;7.036;2022-08-04T07:02:14;2.20;;;1.97;;
15425;SDS011;7812;50.072;7.036;2022-08-04T07:04:44;2.50;;;1.70;;
15425;SDS011;7812;50.072;7.036;2022-08-04T07:07:12;2.83;;;2.40;;
15425;SDS011;7812;50.072;7.036;2022-08-04T07:09:39;2.80;;;2.00;;
15425;SDS011;7812;50.072;7.036;2022-08-04T07:12:05;3.10;;;1.90;;
15425;SDS011;7812;50.072;7.036;2022-08-04T07:14:32;3.27;;;2.20;;
15425;SDS011;7812;50.072;7.036;2022-08-04T07:17:04;4.33;;;2.00;;
15425;SDS011;7812;50.072;7.036;2022-08-04T07:19:32;2.33;;;2.10;;
15425;SDS011;7812;50.072;7.036;2022-08-04T07:21:59;2.00;;;1.80;;
15425;SDS011;7812;50.072;7.036;2022-08-04T07:24:32;2.30;;;2.10;;
15425;SDS011;7812;50.072;7.036;2022-08-04T07:26:59;1.93;;;1.83;;
15425;SDS011;7812;50.072;7.036;2022-08-04T07:29:25;3.00;;;1.80;;
15425;SDS011;7812;50.072;7.036;2022-08-04T07:31:53;2.57;;;1.80;;
15425;SDS011;7812;50.072;7.036;2022-08-04T07:34:21;5.30;;;2.43;;
15425;SDS011;7812;50.072;7.036;2022-08-04T07:36:51;2.80;;;1.93;;
15425;SDS011;7812;50.072;7.036;2022-08-04T07:39:19;3.93;;;1.90;;
15425;SDS011;7812;50.072;7.036;2022-08-04T07:41:46;4.40;;;2.10;;
15425;SDS011;7812;50.072;7.036;2022-08-04T07:44:13;2.57;;;2.37;;
15425;SDS011;7812;50.072;7.036;2022-08-04T07:46:40;4.57;;;2.07;;
15425;SDS011;7812;50.072;7.036;2022-08-04T07:49:07;3.57;;;2.00;;
15425;SDS011;7812;50.072;7.036;2022-08-04T07:51:35;2.23;;;2.03;;
15425;SDS011;7812;50.072;7.036;2022-08-04T07:54:02;2.27;;;1.90;;
15425;SDS011;7812;50.072;7.036;2022-08-04T07:56:29;3.13;;;1.60;;
15425;SDS011;7812;50.072;7.036;2022-08-04T07:58:56;4.57;;;1.70;;
15425;SDS011;7812;50.072;7.036;2022-08-04T08:01:23;2.73;;;1.70;;
15425;SDS011;7812;50.072;7.036;2022-08-04T08:03:50;1.80;;;1.70;;
15425;SDS011;7812;50.072;7.036;2022-08-04T08:06:18;2.80;;;1.90;;
15425;SDS011;7812;50.072;7.036;2022-08-04T08:08:43;2.23;;;1.90;;
15425;SDS011;7812;50.072;7.036;2022-08-04T08:11:09;2.23;;;2.03;;
15425;SDS011;7812;50.072;7.036;2022-08-04T08:13:36;2.03;;;1.90;;
15425;SDS011;7812;50.072;7.036;2022-08-04T08:16:02;3.10;;;2.07;;
15425;SDS011;7812;50.072;7.036;2022-08-04T08:18:29;2.67;;;2.40;;
15425;SDS011;7812;50.072;7.036;2022-08-04T08:20:56;2.80;;;2.30;;
15425;SDS011;7812;50.072;7.036;2022-08-04T08:23:22;2.47;;;2.27;;
15425;SDS011;7812;50.072;7.036;2022-08-04T08:25:58;3.70;;;2.40;;
15425;SDS011;7812;50.072;7.036;2022-08-04T08:28:24;4.33;;;2.40;;
15425;SDS011;7812;50.072;7.036;2022-08-04T08:30:50;2.60;;;2.40;;
15425;SDS011;7812;50.072;7.036;2022-08-04T08:33:16;4.30;;;2.30;;
15425;SDS011;7812;50.072;7.036;2022-08-04T08:38:20;2.60;;;2.37;;
15425;SDS011;7812;50.072;7.036;2022-08-04T08:40:54;3.37;;;2.50;;
15425;SDS011;7812;50.072;7.036;2022-08-04T08:43:47;2.60;;;2.40;;
15425;SDS011;7812;50.072;7.036;2022-08-04T08:49:00;4.07;;;2.30;;
15425;SDS011;7812;50.072;7.036;2022-08-04T08:51:36;3.80;;;2.10;;
15425;SDS011;7812;50.072;7.036;2022-08-04T08:54:14;4.20;;;2.30;;
15425;SDS011;7812;50.072;7.036;2022-08-04T09:15:36;4.60;;;1.90;;
15425;SDS011;7812;50.072;7.036;2022-08-04T09:18:17;2.53;;;1.90;;
15425;SDS011;7812;50.072;7.036;2022-08-04T09:20:48;3.20;;;2.00;;
15425;SDS011;7812;50.072;7.036;2022-08-04T09:23:30;4.83;;;1.80;;
15425;SDS011;7812;50.072;7.036;2022-08-04T09:29:14;2.90;;;1.80;;
15425;SDS011;7812;50.072;7.036;2022-08-04T09:34:33;2.17;;;1.97;;
15425;SDS011;7812;50.072;7.036;2022-08-04T09:40:28;7.50;;;2.17;;
15425;SDS011;7812;50.072;7.036;2022-08-04T09:49:03;2.27;;;1.93;;
15425;SDS011;7812;50.072;7.036;2022-08-04T09:54:26;2.37;;;2.00;;
15425;SDS011;7812;50.072;7.036;2022-08-04T10:02:21;2.57;;;2.30;;
15425;SDS011;7812;50.072;7.036;2022-08-04T10:04:48;2.43;;;2.23;;
15425;SDS011;7812;50.072;7.036;2022-08-04T10:10:11;5.83;;;2.17;;
15425;SDS011;7812;50.072;7.036;2022-08-04T10:21:14;2.70;;;1.37;;
15425;SDS011;7812;50.072;7.036;2022-08-04T10:23:47;4.00;;;1.50;;
15425;SDS011;7812;50.072;7.036;2022-08-04T10:29:17;1.73;;;1.50;;
15425;SDS011;7812;50.072;7.036;2022-08-04T10:35:12;1.70;;;1.60;;
15425;SDS011;7812;50.072;7.036;2022-08-04T10:40:27;1.87;;;1.50;;
15425;SDS011;7812;50.072;7.036;2022-08-04T10:53:49;1.87;;;1.77;;
15425;SDS011;7812;50.072;7.036;2022-08-04T10:56:26;1.93;;;1.73;;
15425;SDS011;7812;50.072;7.036;2022-08-04T10:58:55;2.03;;;1.80;;
15425;SDS011;7812;50.072;7.036;2022-08-04T11:01:28;2.50;;;1.70;;
15425;SDS011;7812;50.072;7.036;2022-08-04T11:04:03;2.20;;;1.73;;
15425;SDS011;7812;50.072;7.036;2022-08-04T11:06:34;3.03;;;1.77;;
15425;SDS011;7812;50.072;7.036;2022-08-04T11:09:02;3.47;;;1.70;;
15425;SDS011;7812;50.072;7.036;2022-08-04T11:11:40;2.20;;;1.97;;
15425;SDS011;7812;50.072;7.036;2022-08-04T11:14:30;1.60;;;1.50;;
15425;SDS011;7812;50.072;7.036;2022-08-04T11:17:16;1.87;;;1.53;;
15425;SDS011;7812;50.072;7.036;2022-08-04T11:25:48;1.50;;;1.40;;
15425;SDS011;7812;50.072;7.036;2022-08-04T11:28:37;2.17;;;1.70;;
15425;SDS011;7812;50.072;7.036;2022-08-04T11:31:18;2.43;;;1.50;;
15425;SDS011;7812;50.072;7.036;2022-08-04T11:34:03;2.63;;;1.60;;
15425;SDS011;7812;50.072;7.036;2022-08-04T11:36:46;1.40;;;1.30;;
15425;SDS011;7812;50.072;7.036;2022-08-04T11:39:20;3.27;;;1.40;;
15425;SDS011;7812;50.072;7.036;2022-08-04T11:41:52;2.23;;;1.40;;
15425;SDS011;7812;50.072;7.036;2022-08-04T11:46:56;2.50;;;2.03;;
15425;SDS011;7812;50.072;7.036;2022-08-04T11:51:57;2.87;;;1.40;;
15425;SDS011;7812;50.072;7.036;2022-08-04T11:54:26;3.70;;;1.53;;
15425;SDS011;7812;50.072;7.036;2022-08-04T11:56:52;2.07;;;1.50;;
15425;SDS011;7812;50.072;7.036;2022-08-04T11:59:20;2.83;;;1.73;;
15425;SDS011;7812;50.072;7.036;2022-08-04T12:12:36;3.40;;;1.60;;
15425;SDS011;7812;50.072;7.036;2022-08-04T12:20:24;2.03;;;1.40;;
15425;SDS011;7812;50.072;7.036;2022-08-04T12:22:53;3.33;;;1.40;;
15425;SDS011;7812;50.072;7.036;2022-08-04T12:25:21;1.80;;;1.27;;
15425;SDS011;7812;50.072;7.036;2022-08-04T12:30:21;3.97;;;1.30;;
15425;SDS011;7812;50.072;7.036;2022-08-04T12:38:12;1.77;;;1.37;;
15425;SDS011;7812;50.072;7.036;2022-08-04T12:45:55;1.60;;;1.03;;
15425;SDS011;7812;50.072;7.036;2022-08-04T12:48:24;1.97;;;1.13;;
15425;SDS011;7812;50.072;7.036;2022-08-04T12:50:53;2.60;;;1.10;;
15425;SDS011;7812;50.072;7.036;2022-08-04T12:53:21;1.13;;;1.03;;
15425;SDS011;7812;50.072;7.036;2022-08-04T12:55:51;1.10;;;0.90;;
15425;SDS011;7812;50.072;7.036;2022-08-04T12:58:19;2.33;;;1.30;;
15425;SDS011;7812;50.072;7.036;2022-08-04T13:01:07;1.80;;;1.30;;
15425;SDS011;7812;50.072;7.036;2022-08-04T13:03:43;1.67;;;1.20;;
15425;SDS011;7812;50.072;7.036;2022-08-04T13:06:14;2.87;;;1.37;;
15425;SDS011;7812;50.072;7.036;2022-08-04T13:08:41;1.80;;;1.20;;
15425;SDS011;7812;50.072;7.036;2022-08-04T13:11:10;2.03;;;1.40;;
15425;SDS011;7812;50.072;7.036;2022-08-04T13:13:37;2.93;;;1.13;;
15425;SDS011;7812;50.072;7.036;2022-08-04T13:16:05;1.90;;;1.10;;
15425;SDS011;7812;50.072;7.036;2022-08-04T13:18:33;3.83;;;1.30;;
15425;SDS011;7812;50.072;7.036;2022-08-04T13:21:11;1.27;;;1.17;;
15425;SDS011;7812;50.072;7.036;2022-08-04T13:23:45;2.40;;;1.10;;
15425;SDS011;7812;50.072;7.036;2022-08-04T13:26:17;1.40;;;1.20;;
15425;SDS011;7812;50.072;7.036;2022-08-04T13:28:44;2.57;;;1.33;;
15425;SDS011;7812;50.072;7.036;2022-08-04T13:31:14;2.77;;;1.30;;
15425;SDS011;7812;50.072;7.036;2022-08-04T13:33:44;2.70;;;1.17;;
15425;SDS011;7812;50.072;7.036;2022-08-04T13:36:12;3.80;;;1.30;;
15425;SDS011;7812;50.072;7.036;2022-08-04T13:38:44;1.87;;;1.20;;
15425;SDS011;7812;50.072;7.036;2022-08-04T13:41:16;2.43;;;1.10;;
15425;SDS011;7812;50.072;7.036;2022-08-04T13:43:44;2.53;;;1.23;;
15425;SDS011;7812;50.072;7.036;2022-08-04T13:46:13;1.27;;;1.17;;
15425;SDS011;7812;50.072;7.036;2022-08-04T13:48:42;2.23;;;1.10;;
15425;SDS011;7812;50.072;7.036;2022-08-04T13:51:09;1.73;;;1.17;;
15425;SDS011;7812;50.072;7.036;2022-08-04T13:53:37;2.13;;;1.23;;
15425;SDS011;7812;50.072;7.036;2022-08-04T13:56:06;1.87;;;1.33;;
15425;SDS011;7812;50.072;7.036;2022-08-04T13:58:38;2.53;;;1.20;;
15425;SDS011;7812;50.072;7.036;2022-08-04T14:01:26;2.73;;;1.33;;
15425;SDS011;7812;50.072;7.036;2022-08-04T14:04:00;1.40;;;1.30;;
15425;SDS011;7812;50.072;7.036;2022-08-04T14:06:32;2.10;;;1.57;;
15425;SDS011;7812;50.072;7.036;2022-08-04T14:09:00;1.23;;;1.10;;
15425;SDS011;7812;50.072;7.036;2022-08-04T14:14:14;2.30;;;1.27;;
15425;SDS011;7812;50.072;7.036;2022-08-04T14:24:57;2.63;;;1.20;;
15425;SDS011;7812;50.072;7.036;2022-08-04T14:30:34;1.50;;;1.13;;
15425;SDS011;7812;50.072;7.036;2022-08-04T14:33:10;2.83;;;1.27;;
15425;SDS011;7812;50.072;7.036;2022-08-04T14:35:37;1.30;;;1.20;;
15425;SDS011;7812;50.072;7.036;2022-08-04T14:38:04;1.20;;;1.10;;
15425;SDS011;7812;50.072;7.036;2022-08-04T14:40:31;1.90;;;1.30;;
15425;SDS011;7812;50.072;7.036;2022-08-04T14:42:59;5.40;;;1.93;;
15425;SDS011;7812;50.072;7.036;2022-08-04T14:45:34;2.13;;;1.10;;
15425;SDS011;7812;50.072;7.036;2022-08-04T14:48:10;2.27;;;1.20;;
15425;SDS011;7812;50.072;7.036;2022-08-04T14:50:45;1.40;;;1.20;;
15425;SDS011;7812;50.072;7.036;2022-08-04T14:55:44;2.60;;;1.40;;
15425;SDS011;7812;50.072;7.036;2022-08-04T15:00:45;3.10;;;1.50;;
15425;SDS011;7812;50.072;7.036;2022-08-04T15:03:17;1.27;;;1.17;;
15425;SDS011;7812;50.072;7.036;2022-08-04T15:05:47;1.50;;;1.40;;
15425;SDS011;7812;50.072;7.036;2022-08-04T15:08:14;1.77;;;1.20;;
15425;SDS011;7812;50.072;7.036;2022-08-04T15:10:40;1.43;;;1.20;;
15425;SDS011;7812;50.072;7.036;2022-08-04T15:13:07;2.30;;;1.20;;
15425;SDS011;7812;50.072;7.036;2022-08-04T15:15:33;1.50;;;1.40;;
15425;SDS011;7812;50.072;7.036;2022-08-04T15:17:59;2.27;;;1.20;;
15425;SDS011;7812;50.072;7.036;2022-08-04T15:20:27;3.17;;;1.50;;
15425;SDS011;7812;50.072;7.036;2022-08-04T15:22:55;2.23;;;1.50;;
15425;SDS011;7812;50.072;7.036;2022-08-04T15:25:21;2.10;;;1.40;;
15425;SDS011;7812;50.072;7.036;2022-08-04T15:27:47;2.07;;;1.30;;
15425;SDS011;7812;50.072;7.036;2022-08-04T15:30:15;2.03;;;1.40;;
15425;SDS011;7812;50.072;7.036;2022-08-04T15:32:52;1.90;;;1.23;;
15425;SDS011;7812;50.072;7.036;2022-08-04T15:35:24;1.80;;;1.37;;
15425;SDS011;7812;50.072;7.036;2022-08-04T15:46:11;3.57;;;1.20;;
15425;SDS011;7812;50.072;7.036;2022-08-04T15:48:37;2.50;;;1.40;;
15425;SDS011;7812;50.072;7.036;2022-08-04T15:51:04;1.47;;;1.30;;
15425;SDS011;7812;50.072;7.036;2022-08-04T15:58:49;2.07;;;1.70;;
15425;SDS011;7812;50.072;7.036;2022-08-04T16:01:16;2.77;;;2.00;;
15425;SDS011;7812;50.072;7.036;2022-08-04T16:19:13;1.60;;;1.47;;
15425;SDS011;7812;50.072;7.036;2022-08-04T16:21:48;3.27;;;1.30;;
15425;SDS011;7812;50.072;7.036;2022-08-04T16:24:19;3.73;;;1.40;;
15425;SDS011;7812;50.072;7.036;2022-08-04T16:26:54;1.93;;;1.50;;
15425;SDS011;7812;50.072;7.036;2022-08-04T16:29:29;2.40;;;1.40;;
15425;SDS011;7812;50.072;7.036;2022-08-04T16:34:38;2.70;;;1.33;;
15425;SDS011;7812;50.072;7.036;2022-08-04T16:37:07;3.30;;;1.53;;
15425;SDS011;7812;50.072;7.036;2022-08-04T16:39:35;1.73;;;1.30;;
15425;SDS011;7812;50.072;7.036;2022-08-04T16:50:13;2.43;;;1.40;;
15425;SDS011;7812;50.072;7.036;2022-08-04T16:52:42;2.47;;;1.73;;
15425;SDS011;7812;50.072;7.036;2022-08-04T16:55:10;3.10;;;1.83;;
15425;SDS011;7812;50.072;7.036;2022-08-04T16:57:38;3.83;;;1.30;;
15425;SDS011;7812;50.072;7.036;2022-08-04T17:00:05;3.97;;;1.80;;
15425;SDS011;7812;50.072;7.036;2022-08-04T17:02:32;2.93;;;1.40;;
15425;SDS011;7812;50.072;7.036;2022-08-04T17:04:59;3.27;;;1.33;;
15425;SDS011;7812;50.072;7.036;2022-08-04T17:07:25;11.27;;;1.87;;
15425;SDS011;7812;50.072;7.036;2022-08-04T17:09:51;3.50;;;1.80;;
15425;SDS011;7812;50.072;7.036;2022-08-04T17:12:17;2.90;;;1.80;;
15425;SDS011;7812;50.072;7.036;2022-08-04T17:14:43;2.93;;;1.87;;
15425;SDS011;7812;50.072;7.036;2022-08-04T17:17:08;5.77;;;1.90;;
15425;SDS011;7812;50.072;7.036;2022-08-04T17:19:35;3.40;;;1.87;;
15425;SDS011;7812;50.072;7.036;2022-08-04T17:22:02;4.23;;;2.00;;
15425;SDS011;7812;50.072;7.036;2022-08-04T17:24:34;6.03;;;1.90;;
15425;SDS011;7812;50.072;7.036;2022-08-04T17:27:02;7.23;;;2.20;;
15425;SDS011;7812;50.072;7.036;2022-08-04T17:29:29;4.67;;;2.00;;
15425;SDS011;7812;50.072;7.036;2022-08-04T17:31:55;5.30;;;2.20;;
15425;SDS011;7812;50.072;7.036;2022-08-04T17:34:21;4.80;;;2.00;;
15425;SDS011;7812;50.072;7.036;2022-08-04T17:36:49;5.80;;;2.07;;
15425;SDS011;7812;50.072;7.036;2022-08-04T17:39:17;5.63;;;2.20;;
15425;SDS011;7812;50.072;7.036;2022-08-04T17:41:44;4.93;;;1.90;;
15425;SDS011;7812;50.072;7.036;2022-08-04T17:44:11;5.17;;;2.27;;
15425;SDS011;7812;50.072;7.036;2022-08-04T17:46:41;6.93;;;2.17;;
15425;SDS011;7812;50.072;7.036;2022-08-04T17:54:15;3.80;;;1.90;;
15425;SDS011;7812;50.072;7.036;2022-08-04T17:56:45;5.33;;;2.20;;
15425;SDS011;7812;50.072;7.036;2022-08-04T18:01:59;3.60;;;2.37;;
15425;SDS011;7812;50.072;7.036;2022-08-04T18:07:11;5.70;;;2.63;;
15425;SDS011;7812;50.072;7.036;2022-08-04T18:09:42;4.33;;;2.20;;
15425;SDS011;7812;50.072;7.036;2022-08-04T18:12:22;4.00;;;2.00;;
15425;SDS011;7812;50.072;7.036;2022-08-04T18:14:53;2.80;;;1.90;;
15425;SDS011;7812;50.072;7.036;2022-08-04T18:17:34;2.73;;;2.03;;
15425;SDS011;7812;50.072;7.036;2022-08-04T18:20:11;3.43;;;1.90;;
15425;SDS011;7812;50.072;7.036;2022-08-04T18:22:40;4.87;;;2.30;;
15425;SDS011;7812;50.072;7.036;2022-08-04T18:25:10;3.10;;;1.87;;
15425;SDS011;7812;50.072;7.036;2022-08-04T18:30:18;7.23;;;2.27;;
15425;SDS011;7812;50.072;7.036;2022-08-04T18:32:44;3.90;;;2.10;;
15425;SDS011;7812;50.072;7.036;2022-08-04T18:35:10;6.20;;;2.40;;
15425;SDS011;7812;50.072;7.036;2022-08-04T18:37:37;4.90;;;1.83;;
15425;SDS011;7812;50.072;7.036;2022-08-04T18:40:04;4.23;;;1.90;;
15425;SDS011;7812;50.072;7.036;2022-08-04T18:42:31;4.73;;;2.13;;
15425;SDS011;7812;50.072;7.036;2022-08-04T18:44:57;3.23;;;2.10;;
15425;SDS011;7812;50.072;7.036;2022-08-04T18:47:23;4.67;;;2.23;;
15425;SDS011;7812;50.072;7.036;2022-08-04T18:49:52;3.63;;;2.10;;
15425;SDS011;7812;50.072;7.036;2022-08-04T18:52:18;2.60;;;1.90;;
15425;SDS011;7812;50.072;7.036;2022-08-04T18:54:44;5.20;;;1.93;;
15425;SDS011;7812;50.072;7.036;2022-08-04T18:57:10;3.70;;;1.87;;
15425;SDS011;7812;50.072;7.036;2022-08-04T18:59:36;5.10;;;2.23;;
15425;SDS011;7812;50.072;7.036;2022-08-04T19:02:02;6.20;;;2.07;;
15425;SDS011;7812;50.072;7.036;2022-08-04T19:04:28;2.27;;;1.90;;
15425;SDS011;7812;50.072;7.036;2022-08-04T19:06:54;4.57;;;2.10;;
15425;SDS011;7812;50.072;7.036;2022-08-04T19:09:20;4.37;;;2.20;;
15425;SDS011;7812;50.072;7.036;2022-08-04T19:11:47;3.80;;;1.90;;
15425;SDS011;7812;50.072;7.036;2022-08-04T19:14:12;2.20;;;1.87;;
15425;SDS011;7812;50.072;7.036;2022-08-04T19:16:38;6.17;;;2.70;;
15425;SDS011;7812;50.072;7.036;2022-08-04T19:19:05;4.10;;;2.10;;
15425;SDS011;7812;50.072;7.036;2022-08-04T19:21:30;4.27;;;2.13;;
15425;SDS011;7812;50.072;7.036;2022-08-04T19:23:57;4.03;;;2.10;;
15425;SDS011;7812;50.072;7.036;2022-08-04T19:26:23;3.37;;;1.90;;
15425;SDS011;7812;50.072;7.036;2022-08-04T19:28:49;6.77;;;2.17;;
15425;SDS011;7812;50.072;7.036;2022-08-04T19:31:16;6.27;;;2.33;;
15425;SDS011;7812;50.072;7.036;2022-08-04T19:33:42;6.60;;;2.43;;
15425;SDS011;7812;50.072;7.036;2022-08-04T19:36:08;3.00;;;1.80;;
15425;SDS011;7812;50.072;7.036;2022-08-04T19:38:35;5.67;;;1.93;;
15425;SDS011;7812;50.072;7.036;2022-08-04T19:41:01;4.70;;;2.17;;
15425;SDS011;7812;50.072;7.036;2022-08-04T19:43:29;5.27;;;2.23;;
15425;SDS011;7812;50.072;7.036;2022-08-04T19:45:55;4.30;;;2.17;;
15425;SDS011;7812;50.072;7.036;2022-08-04T19:48:21;3.47;;;2.20;;
15425;SDS011;7812;50.072;7.036;2022-08-04T19:50:46;3.80;;;2.40;;
15425;SDS011;7812;50.072;7.036;2022-08-04T19:53:13;4.23;;;2.00;;
15425;SDS011;7812;50.072;7.036;2022-08-04T19:55:39;3.47;;;2.30;;
15425;SDS011;7812;50.072;7.036;2022-08-04T19:58:06;5.77;;;2.17;;
15425;SDS011;7812;50.072;7.036;2022-08-04T20:00:32;4.67;;;2.20;;
15425;SDS011;7812;50.072;7.036;2022-08-04T20:02:58;5.20;;;2.30;;
15425;SDS011;7812;50.072;7.036;2022-08-04T20:05:25;4.50;;;2.10;;
15425;SDS011;7812;50.072;7.036;2022-08-04T20:07:50;3.77;;;1.93;;
15425;SDS011;7812;50.072;7.036;2022-08-04T20:10:16;3.57;;;2.50;;
15425;SDS011;7812;50.072;7.036;2022-08-04T20:12:43;4.43;;;2.67;;
15425;SDS011;7812;50.072;7.036;2022-08-04T20:15:09;3.67;;;2.80;;
15425;SDS011;7812;50.072;7.036;2022-08-04T20:17:35;5.27;;;2.70;;
15425;SDS011;7812;50.072;7.036;2022-08-04T20:20:01;4.50;;;2.57;;
15425;SDS011;7812;50.072;7.036;2022-08-04T20:22:30;5.17;;;2.50;;
15425;SDS011;7812;50.072;7.036;2022-08-04T20:24:56;5.50;;;2.20;;
15425;SDS011;7812;50.072;7.036;2022-08-04T20:27:22;4.23;;;2.30;;
15425;SDS011;7812;50.072;7.036;2022-08-04T20:29:49;5.60;;;2.30;;
15425;SDS011;7812;50.072;7.036;2022-08-04T20:32:17;5.87;;;2.50;;
15425;SDS011;7812;50.072;7.036;2022-08-04T20:34:49;4.57;;;2.43;;
15425;SDS011;7812;50.072;7.036;2022-08-04T20:37:16;2.37;;;2.10;;
15425;SDS011;7812;50.072;7.036;2022-08-04T20:39:42;4.37;;;2.37;;
15425;SDS011;7812;50.072;7.036;2022-08-04T20:42:08;3.23;;;2.30;;
15425;SDS011;7812;50.072;7.036;2022-08-04T20:44:34;3.77;;;2.30;;
15425;SDS011;7812;50.072;7.036;2022-08-04T20:46:59;3.57;;;2.10;;
15425;SDS011;7812;50.072;7.036;2022-08-04T20:49:25;3.47;;;2.07;;
15425;SDS011;7812;50.072;7.036;2022-08-04T20:51:51;3.97;;;2.20;;
15425;SDS011;7812;50.072;7.036;2022-08-04T20:54:19;2.30;;;2.10;;
15425;SDS011;7812;50.072;7.036;2022-08-04T20:56:44;5.60;;;2.67;;
15425;SDS011;7812;50.072;7.036;2022-08-04T20:59:10;3.03;;;2.43;;
15425;SDS011;7812;50.072;7.036;2022-08-04T21:01:36;2.30;;;1.90;;
15425;SDS011;7812;50.072;7.036;2022-08-04T21:04:02;2.87;;;2.10;;